Time;durP1;ratioP1;P1;durP2;ratioP2;P2;SDS_P1;SDS_P2;PMS_P1;PMS_P2;Temp;Humidity;BMP_temperature;BMP_pressure;BME280_temperature;BME280_humidity;BME280_pressure;Samples;Min_cycle;Max_cycle;Signal;HPM_P1;HPM_P2
2022/02/04 00:20:38;;;;;;;125.43;10.48;;;;;;;;;;5022010;28;20559;-37
2022/02/04 00:23:12;;;;;;;72.15;7.97;;;;;;;;;;5016976;28;20041;-37
2022/02/04 00:28:13;;;;;;;65.20;7.18;;;;;;;;;;5023541;28;20069;-37
2022/02/04 00:30:46;;;;;;;65.03;7.00;;;;;;;;;;5024346;28;20038;-37
2022/02/04 00:33:14;;;;;;;47.88;6.70;;;;;;;;;;5016598;28;20442;-37
2022/02/04 00:38:21;;;;;;;39.38;5.18;;;;;;;;;;5019998;28;20380;-37
2022/02/04 00:40:52;;;;;;;22.80;3.40;;;;;;;;;;5020028;28;20044;-37
2022/02/04 00:43:20;;;;;;;26.43;3.87;;;;;;;;;;5017654;28;20112;-37
2022/02/04 00:56:37;;;;;;;16.90;3.80;;;;;;;;;;5029351;28;20418;-37
2022/02/04 01:26:21;;;;;;;4.25;2.10;;;;;;;;;;5019929;28;20112;-39
2022/02/04 01:28:51;;;;;;;3.75;1.15;;;;;;;;;;5021561;28;20037;-40
2022/02/04 01:31:20;;;;;;;3.90;0.90;;;;;;;;;;5025098;28;20037;-40
2022/02/04 01:33:48;;;;;;;1.65;0.70;;;;;;;;;;5031613;28;20037;-40
2022/02/04 01:36:15;;;;;;;4.43;0.77;;;;;;;;;;5032383;28;20026;-40
2022/02/04 01:38:43;;;;;;;5.07;0.70;;;;;;;;;;5031335;28;20396;-41
2022/02/04 01:41:10;;;;;;;3.95;0.95;;;;;;;;;;5031954;28;21070;-40
2022/02/04 01:43:38;;;;;;;3.08;0.70;;;;;;;;;;5015924;28;20029;-40
2022/02/04 01:46:06;;;;;;;2.58;0.70;;;;;;;;;;5011907;28;20430;-39
2022/02/04 01:48:34;;;;;;;3.38;0.73;;;;;;;;;;5011553;28;20041;-39
2022/02/04 01:51:02;;;;;;;3.30;0.68;;;;;;;;;;5018349;28;20383;-39
2022/02/04 01:53:30;;;;;;;6.07;1.00;;;;;;;;;;5031725;28;20132;-39
2022/02/04 01:55:58;;;;;;;2.25;0.60;;;;;;;;;;5014308;28;20882;-39
2022/02/04 01:58:26;;;;;;;6.43;1.23;;;;;;;;;;5022443;28;20378;-39
2022/02/04 02:00:54;;;;;;;3.65;1.40;;;;;;;;;;5030396;28;20052;-39
2022/02/04 02:03:21;;;;;;;5.32;1.10;;;;;;;;;;5031176;28;20025;-39
2022/02/04 02:05:50;;;;;;;4.35;1.20;;;;;;;;;;5032155;28;20036;-39
2022/02/04 02:08:19;;;;;;;3.40;0.60;;;;;;;;;;5031275;28;20116;-39
2022/02/04 02:10:48;;;;;;;5.47;0.63;;;;;;;;;;5032051;28;20037;-39
2022/02/04 02:36:13;;;;;;;5.50;0.77;;;;;;;;;;5011824;28;20042;-38
2022/02/04 02:42:06;;;;;;;2.00;0.90;;;;;;;;;;5011506;28;20042;-40
2022/02/04 02:44:27;;;;;;;5.53;0.83;;;;;;;;;;5011189;28;20074;-39
2022/02/04 02:50:09;;;;;;;3.05;0.90;;;;;;;;;;5030966;28;20399;-39
2022/02/04 02:52:48;;;;;;;3.47;0.70;;;;;;;;;;5030194;28;20120;-35
2022/02/04 03:02:54;;;;;;;1.70;0.73;;;;;;;;;;5011147;28;20033;-37
2022/02/04 03:05:21;;;;;;;1.90;0.73;;;;;;;;;;5010701;28;20373;-36
2022/02/04 03:07:48;;;;;;;4.35;0.70;;;;;;;;;;5011237;28;20105;-37
2022/02/04 03:10:15;;;;;;;2.70;0.70;;;;;;;;;;5011239;28;20053;-37
2022/02/04 03:12:44;;;;;;;2.95;0.70;;;;;;;;;;5012722;28;20476;-37
2022/02/04 03:15:11;;;;;;;3.35;0.85;;;;;;;;;;5021741;28;20389;-36
2022/02/04 03:17:41;;;;;;;4.63;0.90;;;;;;;;;;5017304;28;20029;-37
2022/02/04 03:20:11;;;;;;;2.35;1.30;;;;;;;;;;5017395;28;20407;-37
2022/02/04 03:22:39;;;;;;;3.95;1.17;;;;;;;;;;5017804;28;20381;-36
2022/02/04 03:25:10;;;;;;;3.05;1.38;;;;;;;;;;5017507;28;20026;-37
2022/02/04 03:27:46;;;;;;;2.20;0.93;;;;;;;;;;5017441;28;20117;-37
2022/02/04 03:32:46;;;;;;;2.67;0.88;;;;;;;;;;5017175;28;20399;-36
2022/02/04 03:35:19;;;;;;;3.42;1.13;;;;;;;;;;5017761;28;20100;-37
2022/02/04 03:37:46;;;;;;;1.50;0.70;;;;;;;;;;5017571;28;20033;-37
2022/02/04 03:40:13;;;;;;;1.15;0.57;;;;;;;;;;5017083;28;20030;-37
2022/02/04 03:42:40;;;;;;;4.43;0.73;;;;;;;;;;5017968;28;20037;-37
2022/02/04 03:45:07;;;;;;;3.78;0.77;;;;;;;;;;5016998;28;20026;-37
2022/02/04 03:47:34;;;;;;;1.05;0.40;;;;;;;;;;5017676;28;20033;-36
2022/02/04 03:50:01;;;;;;;1.45;0.50;;;;;;;;;;5017550;28;20064;-37
2022/02/04 03:52:28;;;;;;;0.85;0.40;;;;;;;;;;5017605;28;20097;-36
2022/02/04 03:54:55;;;;;;;1.23;0.50;;;;;;;;;;4999965;28;20037;-36
2022/02/04 03:57:22;;;;;;;2.45;0.98;;;;;;;;;;5017301;28;20543;-37
2022/02/04 03:59:49;;;;;;;1.67;0.70;;;;;;;;;;5017499;28;20044;-37
2022/02/04 04:02:16;;;;;;;3.50;0.70;;;;;;;;;;4999637;28;20042;-37
2022/02/04 04:04:43;;;;;;;1.90;0.60;;;;;;;;;;5017163;28;20029;-37
2022/02/04 04:07:10;;;;;;;1.77;0.60;;;;;;;;;;5017082;28;20464;-36
2022/02/04 04:09:43;;;;;;;1.42;0.70;;;;;;;;;;5017331;28;20065;-37
2022/02/04 04:12:10;;;;;;;1.40;0.60;;;;;;;;;;5016974;28;20476;-37
2022/02/04 04:14:37;;;;;;;2.05;0.50;;;;;;;;;;5016928;28;20057;-37
2022/02/04 04:17:05;;;;;;;0.95;0.43;;;;;;;;;;5017672;28;20041;-37
2022/02/04 04:19:32;;;;;;;1.08;0.52;;;;;;;;;;5016602;28;20029;-36
2022/02/04 04:21:59;;;;;;;2.72;0.60;;;;;;;;;;5017631;28;20061;-36
2022/02/04 04:24:25;;;;;;;1.45;0.50;;;;;;;;;;5015381;28;20030;-36
2022/02/04 04:26:52;;;;;;;4.00;0.60;;;;;;;;;;5013442;28;20057;-37
2022/02/04 04:29:19;;;;;;;1.05;0.40;;;;;;;;;;5014420;28;20062;-36
2022/02/04 04:31:46;;;;;;;3.85;0.50;;;;;;;;;;5014115;28;20038;-37
2022/02/04 04:34:13;;;;;;;2.85;0.50;;;;;;;;;;5013309;28;20030;-37
2022/02/04 04:36:41;;;;;;;1.55;0.50;;;;;;;;;;5014370;28;20085;-36
2022/02/04 04:41:58;;;;;;;1.00;0.50;;;;;;;;;;5013632;28;20030;-36
2022/02/04 05:28:16;;;;;;;1.52;0.30;;;;;;;;;;5013345;28;20113;-37
2022/02/04 05:30:43;;;;;;;2.92;0.50;;;;;;;;;;5013024;28;20064;-36
2022/02/04 05:33:10;;;;;;;1.08;0.45;;;;;;;;;;5013247;28;20022;-37
2022/02/04 05:35:37;;;;;;;3.40;0.75;;;;;;;;;;5012237;28;20064;-37
2022/02/04 05:38:05;;;;;;;2.80;0.35;;;;;;;;;;5013286;28;20033;-36
2022/02/04 05:40:39;;;;;;;3.35;0.50;;;;;;;;;;5011842;28;20050;-36
2022/02/04 05:43:20;;;;;;;2.05;0.30;;;;;;;;;;5013120;28;20034;-36
2022/02/04 05:45:57;;;;;;;1.80;0.50;;;;;;;;;;5012411;28;20921;-36
2022/02/04 05:48:25;;;;;;;1.48;0.30;;;;;;;;;;5012658;28;20030;-36
2022/02/04 05:54:49;;;;;;;1.90;0.32;;;;;;;;;;5011831;28;20141;-37
2022/02/04 05:56:43;;;;;;;1.05;0.40;;;;;;;;;;5003866;28;20591;-37
2022/02/04 05:59:33;;;;;;;1.23;0.57;;;;;;;;;;5012021;28;20029;-37
2022/02/04 06:02:10;;;;;;;0.75;0.40;;;;;;;;;;5012810;28;20044;-36
2022/02/04 06:04:52;;;;;;;2.08;0.40;;;;;;;;;;5012129;28;20032;-37
2022/02/04 06:08:04;;;;;;;3.13;0.40;;;;;;;;;;5012359;28;20112;-36
2022/02/04 06:24:08;;;;;;;2.60;0.40;;;;;;;;;;5008458;28;20279;-36
2022/02/04 06:26:35;;;;;;;0.70;0.47;;;;;;;;;;5011981;28;20026;-37
2022/02/04 06:29:04;;;;;;;2.95;0.73;;;;;;;;;;4994447;28;20021;-37
2022/02/04 06:31:31;;;;;;;1.48;0.40;;;;;;;;;;5012145;28;20032;-36
2022/02/04 06:33:58;;;;;;;2.17;0.50;;;;;;;;;;5011665;28;20036;-36
2022/02/04 06:36:25;;;;;;;3.17;0.52;;;;;;;;;;5011556;28;20030;-37
2022/02/04 06:38:52;;;;;;;1.58;0.50;;;;;;;;;;5011961;28;20045;-37
2022/02/04 06:41:19;;;;;;;3.05;0.50;;;;;;;;;;5011222;28;20033;-37
2022/02/04 06:43:46;;;;;;;1.60;0.43;;;;;;;;;;4993970;28;20022;-36
2022/02/04 06:46:13;;;;;;;3.17;0.40;;;;;;;;;;5011514;28;20072;-37
2022/02/04 06:48:40;;;;;;;2.13;0.40;;;;;;;;;;4993216;28;20034;-36
2022/02/04 06:51:07;;;;;;;2.97;0.47;;;;;;;;;;5011828;28;20044;-37
2022/02/04 06:53:34;;;;;;;4.57;0.77;;;;;;;;;;5011047;28;20034;-37
2022/02/04 06:56:01;;;;;;;1.35;0.38;;;;;;;;;;5011676;28;20107;-36
2022/02/04 06:58:28;;;;;;;1.13;0.40;;;;;;;;;;5011269;28;20030;-37
2022/02/04 07:00:56;;;;;;;1.67;0.60;;;;;;;;;;5011225;28;20033;-37
2022/02/04 07:03:23;;;;;;;3.63;0.70;;;;;;;;;;5011091;28;20034;-36
2022/02/04 07:05:58;;;;;;;2.65;0.60;;;;;;;;;;5010881;28;20030;-37
2022/02/04 07:08:32;;;;;;;3.63;0.68;;;;;;;;;;5011608;28;20438;-37
2022/02/04 07:21:31;;;;;;;3.60;0.70;;;;;;;;;;5030498;28;20034;-37
2022/02/04 07:23:58;;;;;;;1.95;0.82;;;;;;;;;;5029854;28;20029;-36
2022/02/04 07:26:25;;;;;;;3.80;0.70;;;;;;;;;;5030257;28;20029;-36
2022/02/04 07:28:54;;;;;;;2.45;0.82;;;;;;;;;;5030676;28;20037;-37
2022/02/04 07:31:21;;;;;;;4.55;0.88;;;;;;;;;;5030042;28;20030;-37
2022/02/04 07:33:52;;;;;;;5.45;0.95;;;;;;;;;;5030237;28;20030;-36
2022/02/04 07:41:46;;;;;;;5.80;0.90;;;;;;;;;;5030260;28;20030;-36
2022/02/04 07:44:16;;;;;;;2.95;0.60;;;;;;;;;;5030487;28;20479;-36
2022/02/04 07:46:44;;;;;;;4.82;0.98;;;;;;;;;;5030166;28;20099;-36
2022/02/04 07:55:26;;;;;;;4.57;0.90;;;;;;;;;;5032992;28;20028;-36
2022/02/04 08:01:03;;;;;;;1.65;0.60;;;;;;;;;;5034821;28;20048;-36
2022/02/04 08:25:58;;;;;;;0.98;0.60;;;;;;;;;;5033432;28;20033;-36
2022/02/04 08:28:57;;;;;;;2.25;0.63;;;;;;;;;;5033107;28;20047;-36
2022/02/04 08:54:10;;;;;;;1.88;0.60;;;;;;;;;;5033282;28;20108;-36
2022/02/04 09:05:16;;;;;;;4.20;0.60;;;;;;;;;;5033227;28;20103;-37
2022/02/04 09:07:55;;;;;;;4.75;0.80;;;;;;;;;;5032268;28;20034;-36
2022/02/04 09:10:25;;;;;;;3.17;0.65;;;;;;;;;;5032743;28;20033;-36
2022/02/04 09:22:05;;;;;;;4.13;1.00;;;;;;;;;;5032539;28;20047;-36
2022/02/04 09:35:33;;;;;;;3.05;1.17;;;;;;;;;;5032952;28;20036;-36
2022/02/04 09:38:02;;;;;;;5.68;0.90;;;;;;;;;;5032134;28;20487;-36
2022/02/04 09:40:29;;;;;;;3.13;0.60;;;;;;;;;;5031819;28;20034;-36
2022/02/04 09:42:56;;;;;;;3.05;0.93;;;;;;;;;;5032625;28;20105;-37
2022/02/04 09:48:13;;;;;;;5.38;0.73;;;;;;;;;;5032120;28;20048;-36
2022/02/04 10:08:00;;;;;;;3.20;0.98;;;;;;;;;;5032291;28;20503;-37
2022/02/04 10:19:01;;;;;;;4.10;0.98;;;;;;;;;;5022168;28;20091;-37
2022/02/04 10:21:30;;;;;;;4.00;0.85;;;;;;;;;;5021629;28;20070;-37
2022/02/04 10:23:58;;;;;;;6.45;1.40;;;;;;;;;;5019496;28;20066;-35
2022/02/04 10:26:26;;;;;;;7.15;1.20;;;;;;;;;;5025369;28;20108;-41
2022/02/04 10:28:54;;;;;;;5.80;1.13;;;;;;;;;;5030347;28;20558;-41
2022/02/04 10:31:21;;;;;;;4.22;1.15;;;;;;;;;;5030816;28;20033;-42
2022/02/04 10:33:59;;;;;;;11.95;2.13;;;;;;;;;;5030954;28;20041;-44
2022/02/04 10:36:44;;;;;;;19.60;3.60;;;;;;;;;;5028890;28;20033;-43
2022/02/04 10:39:36;;;;;;;12.70;1.80;;;;;;;;;;5030090;28;20045;-41
2022/02/04 10:53:39;;;;;;;5.38;1.10;;;;;;;;;;5029977;28;20041;-41
2022/02/04 10:58:56;;;;;;;6.50;0.90;;;;;;;;;;5029662;28;20080;-40
2022/02/04 11:01:47;;;;;;;5.45;0.90;;;;;;;;;;5029576;28;20356;-39
2022/02/04 11:04:26;;;;;;;3.53;0.80;;;;;;;;;;5029745;28;20045;-40
2022/02/04 11:35:02;;;;;;;2.92;0.90;;;;;;;;;;5012205;28;20111;-41
2022/02/04 11:47:55;;;;;;;2.88;0.80;;;;;;;;;;5024773;28;20136;-42
2022/02/04 11:51:12;;;;;;;5.47;0.88;;;;;;;;;;5013990;28;20124;-42
2022/02/04 11:52:51;;;;;;;2.22;0.80;;;;;;;;;;4991427;28;20042;-42
2022/02/04 11:55:19;;;;;;;3.10;0.60;;;;;;;;;;5033618;28;20483;-40
2022/02/04 11:57:56;;;;;;;7.43;0.90;;;;;;;;;;5033417;28;20554;-40
2022/02/04 12:00:42;;;;;;;4.03;0.73;;;;;;;;;;5021947;28;20050;-40
2022/02/04 12:03:45;;;;;;;5.72;1.00;;;;;;;;;;5021542;28;20037;-40
2022/02/04 12:06:28;;;;;;;3.33;1.52;;;;;;;;;;4964217;28;20043;-40
2022/02/04 12:09:12;;;;;;;6.53;2.15;;;;;;;;;;5010025;28;20042;-41
2022/02/04 12:11:40;;;;;;;4.97;2.58;;;;;;;;;;5013863;28;20109;-40
2022/02/04 12:14:10;;;;;;;3.85;1.50;;;;;;;;;;5013133;28;20050;-40
2022/02/04 12:16:57;;;;;;;10.75;1.77;;;;;;;;;;5013678;28;20034;-40
2022/02/04 12:19:35;;;;;;;4.47;1.15;;;;;;;;;;5020979;28;20045;-40
2022/02/04 12:22:02;;;;;;;1.58;0.60;;;;;;;;;;5032297;28;20088;-41
2022/02/04 12:24:37;;;;;;;4.78;0.50;;;;;;;;;;5026166;28;20029;-41
2022/02/04 12:27:22;;;;;;;5.88;0.65;;;;;;;;;;5026158;28;20471;-43
2022/02/04 12:29:49;;;;;;;2.25;0.70;;;;;;;;;;5030728;28;20041;-43
2022/02/04 12:32:19;;;;;;;3.92;0.52;;;;;;;;;;5032726;28;20033;-43
2022/02/04 12:34:49;;;;;;;2.70;0.60;;;;;;;;;;5025642;28;20088;-43
2022/02/04 12:37:19;;;;;;;2.42;0.60;;;;;;;;;;5021769;28;20437;-43
2022/02/04 12:39:46;;;;;;;3.90;0.50;;;;;;;;;;5022212;28;20102;-44
2022/02/04 12:42:18;;;;;;;4.32;0.70;;;;;;;;;;5032098;28;20179;-43
2022/02/04 12:44:46;;;;;;;3.05;0.50;;;;;;;;;;5032374;28;20029;-43
2022/02/04 12:47:15;;;;;;;3.15;0.60;;;;;;;;;;5032054;28;20041;-43
2022/02/04 12:49:52;;;;;;;2.10;0.50;;;;;;;;;;5024618;28;20422;-43
2022/02/04 12:54:54;;;;;;;6.75;1.00;;;;;;;;;;5032335;28;20045;-43
2022/02/04 13:00:04;;;;;;;1.65;0.50;;;;;;;;;;5032504;28;20132;-41
2022/02/04 13:08:11;;;;;;;9.40;0.80;;;;;;;;;;5023691;28;20067;-40
2022/02/04 13:10:38;;;;;;;7.90;0.70;;;;;;;;;;5031460;28;20044;-40
2022/02/04 13:13:07;;;;;;;15.38;1.02;;;;;;;;;;5032654;28;20063;-42
2022/02/04 13:15:35;;;;;;;6.57;0.70;;;;;;;;;;5032153;28;20507;-43
2022/02/04 13:18:12;;;;;;;4.72;0.50;;;;;;;;;;5031846;28;20398;-43
2022/02/04 13:20:43;;;;;;;4.88;0.85;;;;;;;;;;5031290;28;20038;-43
2022/02/04 13:23:12;;;;;;;7.68;0.90;;;;;;;;;;5031982;28;20037;-42
2022/02/04 13:25:43;;;;;;;5.70;0.60;;;;;;;;;;5031697;28;20090;-42
2022/02/04 13:28:18;;;;;;;2.17;0.60;;;;;;;;;;5031943;28;20034;-43
2022/02/04 13:31:04;;;;;;;5.97;0.63;;;;;;;;;;5031196;28;20029;-42
2022/02/04 13:33:53;;;;;;;6.43;0.95;;;;;;;;;;5014622;28;20522;-42
2022/02/04 13:36:28;;;;;;;3.88;0.70;;;;;;;;;;5031383;28;20033;-42
2022/02/04 13:44:31;;;;;;;8.52;0.60;;;;;;;;;;5024192;28;20099;-40
2022/02/04 13:47:24;;;;;;;7.20;1.10;;;;;;;;;;5025752;28;20037;-40
2022/02/04 13:58:20;;;;;;;1.75;0.40;;;;;;;;;;5025300;28;20114;-41
2022/02/04 14:01:02;;;;;;;3.70;0.50;;;;;;;;;;5030744;28;20136;-42
2022/02/04 14:03:32;;;;;;;3.78;0.63;;;;;;;;;;5031250;28;20395;-41
2022/02/04 14:06:33;;;;;;;4.03;0.60;;;;;;;;;;5031201;28;20030;-41
2022/02/04 14:08:59;;;;;;;3.78;0.40;;;;;;;;;;5027194;28;20043;-42
2022/02/04 14:11:28;;;;;;;8.48;1.10;;;;;;;;;;5030222;28;20119;-42
2022/02/04 14:13:55;;;;;;;6.13;0.43;;;;;;;;;;5017621;28;20021;-43
2022/02/04 14:16:22;;;;;;;1.70;0.32;;;;;;;;;;5022145;28;20071;-42
2022/02/04 14:18:49;;;;;;;3.17;0.50;;;;;;;;;;5027177;28;20022;-41
2022/02/04 14:21:16;;;;;;;3.33;0.38;;;;;;;;;;5015954;28;20120;-42
2022/02/04 14:23:49;;;;;;;5.57;0.40;;;;;;;;;;5014844;28;20038;-44
2022/02/04 14:26:22;;;;;;;3.95;0.60;;;;;;;;;;5021174;28;20040;-42
2022/02/04 14:29:06;;;;;;;5.18;0.52;;;;;;;;;;5016677;28;20039;-42
2022/02/04 14:31:51;;;;;;;7.63;0.73;;;;;;;;;;5019218;28;20033;-43
2022/02/04 14:34:43;;;;;;;6.03;0.65;;;;;;;;;;5029330;28;20060;-43
2022/02/04 14:37:41;;;;;;;7.07;1.08;;;;;;;;;;5024412;28;20522;-42
2022/02/04 15:02:07;;;;;;;4.35;0.65;;;;;;;;;;5013777;28;20046;-43
2022/02/04 15:04:50;;;;;;;4.43;0.70;;;;;;;;;;5010460;28;20029;-43
2022/02/04 15:07:18;;;;;;;5.28;0.50;;;;;;;;;;5010876;28;20026;-42
2022/02/04 15:09:55;;;;;;;2.85;0.60;;;;;;;;;;5010373;28;20042;-42
2022/02/04 15:12:23;;;;;;;10.75;0.80;;;;;;;;;;5010876;28;20034;-42
2022/02/04 15:14:50;;;;;;;4.93;0.55;;;;;;;;;;5010564;28;20065;-42
2022/02/04 15:17:17;;;;;;;5.40;0.65;;;;;;;;;;5010474;28;20044;-42
2022/02/04 15:19:45;;;;;;;38.20;2.30;;;;;;;;;;5012997;28;20091;-42
2022/02/04 15:22:13;;;;;;;14.75;1.02;;;;;;;;;;5012734;28;20096;-42
2022/02/04 15:24:40;;;;;;;17.52;1.50;;;;;;;;;;5010362;28;20026;-36
2022/02/04 15:27:07;;;;;;;39.95;4.32;;;;;;;;;;5010626;28;20022;-37
2022/02/04 15:29:40;;;;;;;27.77;3.30;;;;;;;;;;5011096;28;20030;-37
2022/02/04 15:32:08;;;;;;;27.55;3.70;;;;;;;;;;5012707;28;20502;-36
2022/02/04 15:34:35;;;;;;;47.10;5.20;;;;;;;;;;5010411;28;20022;-37
2022/02/04 15:37:02;;;;;;;51.83;5.85;;;;;;;;;;5010675;28;20427;-37
2022/02/04 15:39:32;;;;;;;71.70;6.20;;;;;;;;;;5013471;28;20033;-37
2022/02/04 15:42:07;;;;;;;69.53;5.40;;;;;;;;;;5026944;28;20029;-37
2022/02/04 15:44:41;;;;;;;57.25;6.63;;;;;;;;;;5030129;28;20113;-37
2022/02/04 15:47:27;;;;;;;58.35;5.90;;;;;;;;;;5030020;28;20033;-37
2022/02/04 15:57:51;;;;;;;20.45;3.22;;;;;;;;;;5029115;28;20438;-37
2022/02/04 16:03:30;;;;;;;34.67;4.70;;;;;;;;;;5030381;28;20042;-37
2022/02/04 16:05:56;;;;;;;31.13;6.40;;;;;;;;;;5029494;28;20030;-37
2022/02/04 16:08:23;;;;;;;41.95;7.22;;;;;;;;;;5029334;28;20167;-37
2022/02/04 16:13:33;;;;;;;33.28;6.80;;;;;;;;;;5030074;28;20080;-37
2022/02/04 16:16:08;;;;;;;29.38;6.13;;;;;;;;;;5029404;28;20053;-37
2022/02/04 16:18:53;;;;;;;38.35;6.43;;;;;;;;;;5022382;28;20034;-37
2022/02/04 16:21:27;;;;;;;35.97;6.80;;;;;;;;;;5009400;28;20037;-37
2022/02/04 16:28:57;;;;;;;35.47;6.10;;;;;;;;;;5022802;28;20032;-36
2022/02/04 16:31:25;;;;;;;33.35;5.53;;;;;;;;;;5022090;28;20017;-36
2022/02/04 16:33:52;;;;;;;24.73;4.72;;;;;;;;;;5021436;28;20048;-37
2022/02/04 16:36:22;;;;;;;21.75;4.75;;;;;;;;;;5015424;28;20025;-36
2022/02/04 16:38:55;;;;;;;20.55;4.50;;;;;;;;;;5023090;28;20492;-36
2022/02/04 16:41:28;;;;;;;27.38;4.50;;;;;;;;;;5021897;28;20488;-36
2022/02/04 16:43:56;;;;;;;28.85;4.68;;;;;;;;;;5021258;28;20122;-36
2022/02/04 16:46:23;;;;;;;22.20;4.43;;;;;;;;;;5020708;28;20539;-36
2022/02/04 16:48:50;;;;;;;24.27;3.80;;;;;;;;;;5021244;28;20716;-36
2022/02/04 16:51:17;;;;;;;22.73;4.00;;;;;;;;;;5021515;28;20053;-36
2022/02/04 16:53:44;;;;;;;22.50;3.22;;;;;;;;;;5028784;28;20145;-36
2022/02/04 16:56:11;;;;;;;20.08;3.22;;;;;;;;;;5032330;28;20056;-36
2022/02/04 16:58:38;;;;;;;19.13;3.28;;;;;;;;;;5032501;28;20033;-36
2022/02/04 17:01:06;;;;;;;19.08;3.05;;;;;;;;;;5031803;28;20025;-36
2022/02/04 17:03:33;;;;;;;13.80;3.30;;;;;;;;;;5032047;28;20044;-36
2022/02/04 17:06:03;;;;;;;19.67;3.45;;;;;;;;;;5032370;28;20029;-36
2022/02/04 17:08:36;;;;;;;14.55;3.05;;;;;;;;;;5031829;28;20113;-36
2022/02/04 17:11:09;;;;;;;14.48;3.00;;;;;;;;;;5031704;28;20061;-36
2022/02/04 17:13:36;;;;;;;14.82;3.20;;;;;;;;;;5028737;28;20062;-36
2022/02/04 17:16:03;;;;;;;17.40;3.47;;;;;;;;;;5023800;28;20076;-36
2022/02/04 17:18:30;;;;;;;19.00;3.25;;;;;;;;;;5029720;28;20032;-36
2022/02/04 17:20:57;;;;;;;20.67;3.75;;;;;;;;;;5028725;28;20037;-36
2022/02/04 17:23:40;;;;;;;19.83;3.80;;;;;;;;;;5023730;28;20095;-36
2022/02/04 17:26:07;;;;;;;18.35;3.75;;;;;;;;;;5027922;28;20061;-36
2022/02/04 17:28:34;;;;;;;18.95;3.72;;;;;;;;;;5030959;28;20017;-36
2022/02/04 17:31:01;;;;;;;19.42;3.58;;;;;;;;;;5028998;28;20076;-36
2022/02/04 17:33:29;;;;;;;16.40;3.50;;;;;;;;;;5027586;28;20030;-36
2022/02/04 17:35:56;;;;;;;12.77;3.28;;;;;;;;;;5030633;28;20021;-37
2022/02/04 17:38:29;;;;;;;18.23;3.45;;;;;;;;;;5028165;28;20033;-36
2022/02/04 17:40:57;;;;;;;10.52;3.03;;;;;;;;;;5031111;28;20116;-36
2022/02/04 17:43:25;;;;;;;16.45;3.42;;;;;;;;;;5027998;28;20047;-36
2022/02/04 17:45:52;;;;;;;15.57;3.30;;;;;;;;;;5030502;28;20101;-37
2022/02/04 17:48:23;;;;;;;18.20;3.58;;;;;;;;;;5029645;28;20120;-36
2022/02/04 17:53:34;;;;;;;11.82;2.38;;;;;;;;;;5028345;28;20040;-37
2022/02/04 17:56:06;;;;;;;7.95;2.63;;;;;;;;;;5029945;28;20048;-37
2022/02/04 17:59:00;;;;;;;13.85;3.40;;;;;;;;;;5029093;28;20055;-36
2022/02/04 18:09:20;;;;;;;13.77;2.90;;;;;;;;;;5028142;28;20033;-35
2022/02/04 18:11:47;;;;;;;21.55;2.97;;;;;;;;;;5030015;28;20029;-35
2022/02/04 18:14:14;;;;;;;25.33;3.05;;;;;;;;;;5029976;28;20129;-35
2022/02/04 18:16:42;;;;;;;21.90;2.92;;;;;;;;;;5026610;28;20059;-36
2022/02/04 18:19:09;;;;;;;22.02;3.72;;;;;;;;;;5025722;28;20998;-36
2022/02/04 18:21:36;;;;;;;17.48;3.10;;;;;;;;;;5025832;28;20065;-36
2022/02/04 18:24:03;;;;;;;17.65;2.85;;;;;;;;;;5026320;28;20537;-40
2022/02/04 18:26:30;;;;;;;15.43;2.45;;;;;;;;;;5027444;28;20056;-37
2022/02/04 18:28:59;;;;;;;22.83;3.28;;;;;;;;;;5027532;28;20043;-36
2022/02/04 18:31:28;;;;;;;18.38;2.75;;;;;;;;;;5028963;28;20021;-37
2022/02/04 18:33:56;;;;;;;11.45;2.88;;;;;;;;;;5027648;28;20037;-36
2022/02/04 18:36:23;;;;;;;13.70;2.90;;;;;;;;;;5026145;28;20246;-36
2022/02/04 18:38:55;;;;;;;16.27;2.67;;;;;;;;;;5029939;28;20029;-35
2022/02/04 18:43:56;;;;;;;19.88;2.63;;;;;;;;;;5024415;28;20124;-38
2022/02/04 18:49:22;;;;;;;18.48;2.80;;;;;;;;;;5030341;28;20040;-37
2022/02/04 18:57:07;;;;;;;10.43;1.58;;;;;;;;;;5028975;28;20034;-38
2022/02/04 18:59:39;;;;;;;10.38;1.48;;;;;;;;;;5029583;28;20056;-37
2022/02/04 19:02:06;;;;;;;7.45;1.48;;;;;;;;;;5029798;28;20036;-37
2022/02/04 19:04:44;;;;;;;14.52;1.50;;;;;;;;;;5030062;28;20030;-37
2022/02/04 19:07:16;;;;;;;13.45;2.13;;;;;;;;;;5019878;28;20084;-37
2022/02/04 19:09:46;;;;;;;8.77;2.00;;;;;;;;;;5009627;28;20066;-37
2022/02/04 19:12:17;;;;;;;8.13;1.90;;;;;;;;;;5010412;28;20550;-37
2022/02/04 19:15:07;;;;;;;21.30;2.88;;;;;;;;;;5010753;28;20045;-35
2022/02/04 19:17:43;;;;;;;26.70;3.40;;;;;;;;;;5014729;28;20045;-35
2022/02/04 19:20:22;;;;;;;18.88;3.15;;;;;;;;;;5017403;28;20041;-36
2022/02/04 19:22:58;;;;;;;24.92;3.83;;;;;;;;;;5017952;28;20758;-35
2022/02/04 19:25:28;;;;;;;21.17;3.85;;;;;;;;;;5017567;28;20033;-35
2022/02/04 19:27:56;;;;;;;23.17;4.20;;;;;;;;;;5016836;28;20424;-36
2022/02/04 19:30:24;;;;;;;21.73;4.32;;;;;;;;;;5014826;28;20092;-39
2022/02/04 19:32:52;;;;;;;26.70;5.00;;;;;;;;;;5025083;28;20048;-38
2022/02/04 19:35:19;;;;;;;42.42;5.20;;;;;;;;;;5025071;28;20077;-36
2022/02/04 19:37:47;;;;;;;31.48;4.63;;;;;;;;;;5028411;28;20030;-38
2022/02/04 19:40:14;;;;;;;29.60;5.63;;;;;;;;;;5025687;28;20045;-38
2022/02/04 19:42:44;;;;;;;52.70;7.65;;;;;;;;;;5028028;28;20032;-35
2022/02/04 19:45:20;;;;;;;28.30;4.95;;;;;;;;;;5028600;28;20057;-37
2022/02/04 19:47:56;;;;;;;30.48;5.22;;;;;;;;;;5028441;28;20026;-37
2022/02/04 19:50:39;;;;;;;37.33;6.50;;;;;;;;;;5027982;28;20059;-38
2022/02/04 20:07:02;;;;;;;42.88;8.73;;;;;;;;;;5031791;28;20048;-39
2022/02/04 20:25:49;;;;;;;31.48;6.38;;;;;;;;;;5024223;28;20060;-39
2022/02/04 20:28:18;;;;;;;26.67;5.70;;;;;;;;;;5032801;28;20025;-38
2022/02/04 20:30:46;;;;;;;23.98;6.13;;;;;;;;;;5031988;28;20437;-38
2022/02/04 20:33:13;;;;;;;27.20;5.82;;;;;;;;;;5016684;28;20372;-38
2022/02/04 20:35:44;;;;;;;34.85;6.50;;;;;;;;;;5025740;28;20029;-38
2022/02/04 20:38:16;;;;;;;29.73;6.35;;;;;;;;;;5012336;28;20080;-38
2022/02/04 20:40:53;;;;;;;19.55;5.53;;;;;;;;;;5012096;28;20089;-38
2022/02/04 20:43:21;;;;;;;22.38;4.75;;;;;;;;;;5011731;28;20041;-40
2022/02/04 20:45:48;;;;;;;25.30;5.57;;;;;;;;;;5029752;28;20025;-40
2022/02/04 20:48:15;;;;;;;26.00;5.00;;;;;;;;;;5031787;28;20691;-40
2022/02/04 20:50:42;;;;;;;22.60;5.85;;;;;;;;;;5027778;28;20042;-40
2022/02/04 20:53:09;;;;;;;22.92;4.95;;;;;;;;;;5019670;28;20037;-38
2022/02/04 20:55:38;;;;;;;28.08;5.10;;;;;;;;;;5021605;28;20105;-38
2022/02/04 20:58:09;;;;;;;22.77;4.95;;;;;;;;;;5020598;28;20061;-38
2022/02/04 21:00:36;;;;;;;24.80;4.68;;;;;;;;;;5016273;28;20042;-38
2022/02/04 21:03:10;;;;;;;21.08;4.32;;;;;;;;;;5019365;28;20088;-38
2022/02/04 21:05:47;;;;;;;26.05;5.13;;;;;;;;;;5002139;28;20100;-38
2022/02/04 21:13:49;;;;;;;28.65;4.80;;;;;;;;;;5029442;28;20048;-39
2022/02/04 21:16:17;;;;;;;19.50;3.17;;;;;;;;;;5025490;28;20042;-39
2022/02/04 21:18:44;;;;;;;18.10;3.67;;;;;;;;;;5030226;28;20026;-39
2022/02/04 21:21:11;;;;;;;18.20;3.45;;;;;;;;;;5019559;28;20065;-39
2022/02/04 21:23:38;;;;;;;12.43;3.20;;;;;;;;;;5023972;28;20028;-39
2022/02/04 21:26:07;;;;;;;24.35;4.25;;;;;;;;;;5023602;28;20087;-39
2022/02/04 21:28:35;;;;;;;16.42;3.85;;;;;;;;;;5029797;28;20041;-39
2022/02/04 21:31:03;;;;;;;17.92;3.83;;;;;;;;;;5028501;28;20111;-40
2022/02/04 21:38:46;;;;;;;18.48;3.15;;;;;;;;;;5027838;28;20398;-39
2022/02/04 21:41:13;;;;;;;20.00;2.90;;;;;;;;;;5030049;28;20596;-39
2022/02/04 21:43:42;;;;;;;16.85;2.05;;;;;;;;;;5030699;28;20025;-38
2022/02/04 21:46:11;;;;;;;14.50;1.88;;;;;;;;;;5028123;28;20095;-38
2022/02/04 21:48:50;;;;;;;14.32;2.38;;;;;;;;;;5008703;28;20392;-39
2022/02/04 21:51:18;;;;;;;10.20;1.38;;;;;;;;;;5029882;28;20068;-39
2022/02/04 21:53:45;;;;;;;14.32;2.00;;;;;;;;;;5003355;28;20121;-37
2022/02/04 21:56:13;;;;;;;7.38;1.20;;;;;;;;;;4993286;28;20495;-37
2022/02/04 21:58:41;;;;;;;10.90;1.30;;;;;;;;;;5019013;28;20037;-37
2022/02/04 22:01:08;;;;;;;9.48;1.42;;;;;;;;;;5021080;28;20042;-37
2022/02/04 22:03:35;;;;;;;10.35;1.10;;;;;;;;;;5025908;28;20025;-36
2022/02/04 22:06:04;;;;;;;5.10;0.90;;;;;;;;;;5028641;28;20033;-37
2022/02/04 22:09:00;;;;;;;4.25;1.05;;;;;;;;;;5019962;28;20036;-37
2022/02/04 22:11:36;;;;;;;6.63;0.95;;;;;;;;;;5015586;28;20441;-38
2022/02/04 22:14:26;;;;;;;8.00;1.30;;;;;;;;;;5015202;28;20080;-37
2022/02/04 22:24:32;;;;;;;2.35;0.75;;;;;;;;;;5030141;28;20037;-38
2022/02/04 22:27:01;;;;;;;5.10;0.90;;;;;;;;;;5030162;28;20031;-37
2022/02/04 22:29:33;;;;;;;2.53;0.60;;;;;;;;;;5030116;28;20026;-38
2022/02/04 22:32:17;;;;;;;2.03;0.52;;;;;;;;;;5026673;28;20116;-36
2022/02/04 22:34:58;;;;;;;2.70;0.75;;;;;;;;;;5028287;28;20025;-37
2022/02/04 22:43:01;;;;;;;3.35;0.52;;;;;;;;;;5025938;28;20582;-36
2022/02/04 22:49:21;;;;;;;5.47;0.80;;;;;;;;;;5027661;28;20037;-37
2022/02/04 22:56:55;;;;;;;3.30;1.10;;;;;;;;;;5030432;28;20044;-37
2022/02/04 22:59:25;;;;;;;5.28;0.80;;;;;;;;;;5027872;28;20029;-38
2022/02/04 23:01:53;;;;;;;3.15;0.85;;;;;;;;;;5027246;28;20037;-38
2022/02/04 23:04:23;;;;;;;2.85;0.80;;;;;;;;;;5027503;28;20460;-38
2022/02/04 23:06:51;;;;;;;4.30;0.95;;;;;;;;;;5023646;28;20049;-37
2022/02/04 23:12:04;;;;;;;4.60;1.00;;;;;;;;;;5049897;22;20072;-34
2022/02/04 23:14:40;;;;;;;4.65;1.35;;;;;;;;;;5001186;28;20026;-33
2022/02/04 23:17:16;;;;;;;3.75;1.30;;;;;;;;;;4999590;28;20029;-42
2022/02/04 23:22:16;;;;;;;14.73;1.73;;;;;;;;;;5004849;28;20037;-42